createdAt,value
2022-11-29T00:00:42.106Z,25.5
2022-11-29T00:03:42.106Z,27.6
2022-11-29T00:06:42.136Z,25.2
2022-11-29T00:09:42.104Z,26.1
2022-11-29T00:12:42.111Z,24.7
2022-11-29T00:15:42.110Z,28.5
2022-11-29T00:18:42.110Z,26.1
2022-11-29T00:21:42.114Z,27.4
2022-11-29T00:24:42.389Z,25
2022-11-29T00:27:42.120Z,25.4
2022-11-29T00:30:42.226Z,25.9
2022-11-29T00:33:42.118Z,25
2022-11-29T00:36:42.125Z,25.1
2022-11-29T00:39:42.140Z,25.5
2022-11-29T00:42:42.165Z,25.2
2022-11-29T00:45:42.184Z,24
2022-11-29T00:48:42.144Z,24.1
2022-11-29T00:51:42.133Z,23.4
2022-11-29T00:54:42.346Z,24.9
2022-11-29T00:57:42.134Z,26.4
2022-11-29T01:00:42.164Z,25.3
2022-11-29T01:03:42.140Z,24.9
2022-11-29T01:06:42.143Z,24.6
2022-11-29T01:09:42.145Z,25.2
2022-11-29T01:12:42.145Z,25.3
2022-11-29T01:15:42.147Z,27.5
2022-11-29T01:18:42.313Z,26.7
2022-11-29T01:21:42.145Z,26.3
2022-11-29T01:24:42.595Z,24.3
2022-11-29T01:27:42.154Z,26.7
2022-11-29T01:30:42.191Z,27
2022-11-29T01:33:42.153Z,26.6
2022-11-29T01:36:42.193Z,25.6
2022-11-29T01:39:42.157Z,26.7
2022-11-29T01:42:42.160Z,27.7
2022-11-29T01:45:42.172Z,26.8
2022-11-29T01:48:42.160Z,27.3
2022-11-29T01:51:42.162Z,27.3
2022-11-29T01:54:42.485Z,26.2
2022-11-29T01:57:42.164Z,26.8
2022-11-29T02:00:42.168Z,27.3
2022-11-29T02:03:42.174Z,26.7
2022-11-29T02:06:42.170Z,28.1
2022-11-29T02:09:42.174Z,26.9
2022-11-29T02:12:42.200Z,27.8
2022-11-29T02:15:42.264Z,27.1
2022-11-29T02:18:42.173Z,27.4
2022-11-29T02:21:42.182Z,27.5
2022-11-29T02:24:42.351Z,26
2022-11-29T02:27:42.182Z,26.3
2022-11-29T02:30:42.255Z,27
2022-11-29T02:33:42.184Z,28.7
2022-11-29T02:36:42.188Z,27.9
2022-11-29T02:39:42.189Z,26.4
2022-11-29T02:42:42.198Z,28.6
2022-11-29T02:45:42.197Z,27.3
2022-11-29T02:48:42.226Z,27.5
2022-11-29T02:51:42.201Z,27.6
2022-11-29T02:54:42.619Z,27.7
2022-11-29T02:57:42.208Z,28.1
2022-11-29T03:00:42.209Z,29.1
2022-11-29T03:03:42.212Z,27.3
2022-11-29T03:06:42.239Z,28.1
2022-11-29T03:09:42.217Z,29.6
2022-11-29T03:12:42.217Z,28.5
2022-11-29T03:15:42.294Z,28.9
2022-11-29T03:18:42.229Z,30
2022-11-29T03:21:42.225Z,29.9
2022-11-29T03:24:42.433Z,31.4
2022-11-29T03:27:42.238Z,29.9
2022-11-29T03:30:42.260Z,28.1
2022-11-29T03:33:42.238Z,29.2
2022-11-29T03:36:42.236Z,31
2022-11-29T03:39:42.238Z,30.2
2022-11-29T03:42:42.270Z,31.7
2022-11-29T03:45:42.232Z,30.6
2022-11-29T03:48:42.240Z,32.5
2022-11-29T03:51:42.244Z,32.5
2022-11-29T03:54:42.474Z,33.3
2022-11-29T03:57:42.247Z,32.5
2022-11-29T04:00:42.287Z,33.3
2022-11-29T04:03:42.250Z,32.5
2022-11-29T04:06:42.251Z,31.4
2022-11-29T04:09:42.254Z,32.9
2022-11-29T04:12:42.261Z,34.9
2022-11-29T04:15:42.284Z,33.5
2022-11-29T04:18:42.315Z,34.9
2022-11-29T04:21:42.269Z,32.5
2022-11-29T04:24:42.479Z,33.1
2022-11-29T04:27:42.276Z,34.6
2022-11-29T04:30:42.279Z,32.1
2022-11-29T04:33:42.281Z,33.4
2022-11-29T04:36:42.304Z,32.3
2022-11-29T04:39:42.283Z,32.4
2022-11-29T04:42:42.285Z,37
2022-11-29T04:45:42.293Z,34
2022-11-29T04:48:42.292Z,34.5
2022-11-29T04:51:42.299Z,35
2022-11-29T04:54:42.672Z,36.2
2022-11-29T04:57:42.301Z,35.9
2022-11-29T05:00:42.312Z,35.8
2022-11-29T05:03:42.312Z,35.8
2022-11-29T05:06:42.317Z,34.1
2022-11-29T05:09:42.317Z,35.4
2022-11-29T05:12:42.357Z,35.6
2022-11-29T05:15:42.348Z,35.8
2022-11-29T05:18:42.321Z,34.9
2022-11-29T05:21:42.325Z,36.4
2022-11-29T05:24:42.554Z,34.6
2022-11-29T05:27:42.330Z,35.5
2022-11-29T05:30:42.361Z,34.8
2022-11-29T05:33:42.346Z,34.9
2022-11-29T05:36:42.339Z,37.1
2022-11-29T05:39:42.341Z,36.3
2022-11-29T05:42:42.342Z,37.2
2022-11-29T05:45:42.350Z,37.3
2022-11-29T05:48:42.380Z,38.7
2022-11-29T05:51:42.352Z,37.5
2022-11-29T05:54:42.533Z,38.5
2022-11-29T05:57:42.359Z,38.6
2022-11-29T06:00:42.358Z,39.7
2022-11-29T06:03:42.369Z,36.3
2022-11-29T06:06:42.408Z,39.5
2022-11-29T06:09:42.372Z,38.5
2022-11-29T06:12:42.374Z,41.2
2022-11-29T06:15:42.383Z,41
2022-11-29T06:18:42.386Z,37.7
2022-11-29T06:21:42.388Z,41.8
2022-11-29T06:24:42.726Z,41.1
2022-11-29T06:27:42.390Z,41.5
2022-11-29T06:30:42.403Z,44.4
2022-11-29T06:33:42.399Z,43.8
2022-11-29T06:36:42.399Z,41.1
2022-11-29T06:39:42.401Z,42.5
2022-11-29T06:42:42.431Z,42.8
2022-11-29T06:45:42.409Z,43.3
2022-11-29T06:48:42.412Z,43.6
2022-11-29T06:51:42.415Z,46.8
2022-11-29T06:54:42.710Z,48.3
2022-11-29T06:57:42.422Z,47.5
2022-11-29T07:00:42.516Z,46.4
2022-11-29T07:03:42.429Z,47.3
2022-11-29T07:06:42.433Z,46.2
2022-11-29T07:09:42.432Z,48
2022-11-29T07:12:42.438Z,48.4
2022-11-29T07:15:42.441Z,49.4
2022-11-29T07:18:42.475Z,50.3
2022-11-29T07:21:42.452Z,51.8
2022-11-29T07:24:42.663Z,51.3
2022-11-29T07:27:42.456Z,48.2
2022-11-29T07:30:42.458Z,48.7
2022-11-29T07:33:42.463Z,50.6
2022-11-29T07:36:42.487Z,49.5
2022-11-29T07:39:42.466Z,50.3
2022-11-29T07:42:42.466Z,49
2022-11-29T07:45:42.483Z,49.2
2022-11-29T07:48:42.484Z,50.8
2022-11-29T07:51:42.486Z,48.3
2022-11-29T07:54:42.750Z,50.5
2022-11-29T07:57:42.495Z,48.2
2022-11-29T08:00:42.565Z,50.2
2022-11-29T08:03:42.509Z,48.7
2022-11-29T08:06:42.510Z,48.2
2022-11-29T08:09:42.607Z,48.9
2022-11-29T08:12:42.543Z,48.2
2022-11-29T08:15:42.526Z,50.5
2022-11-29T08:18:42.534Z,48.5
2022-11-29T08:21:42.529Z,50.5
2022-11-29T08:24:42.643Z,47.5
2022-11-29T08:27:42.539Z,49.1
2022-11-29T08:30:42.580Z,49.3
2022-11-29T08:33:42.558Z,50
2022-11-29T08:36:42.554Z,50.7
2022-11-29T08:39:42.558Z,51
2022-11-29T08:42:42.564Z,51.9
2022-11-29T08:45:42.566Z,50.6
2022-11-29T08:48:42.595Z,51.5
2022-11-29T08:51:42.632Z,49.3
2022-11-29T08:54:42.876Z,53
2022-11-29T08:57:42.593Z,49
2022-11-29T09:00:42.645Z,48
2022-11-29T09:03:42.617Z,48.4
2022-11-29T09:06:42.687Z,48.4
2022-11-29T09:09:42.652Z,48.5
2022-11-29T09:12:42.658Z,48.2
2022-11-29T09:15:42.658Z,48.3
2022-11-29T09:18:44.865Z,45.6
2022-11-29T09:21:42.708Z,47.4
2022-11-29T09:24:42.971Z,47.2
2022-11-29T09:27:42.707Z,49.2
2022-11-29T09:30:42.708Z,48.3
2022-11-29T09:33:42.709Z,48.4
2022-11-29T09:36:42.712Z,45.6
2022-11-29T09:39:42.705Z,45.9
2022-11-29T09:42:42.734Z,46.5
2022-11-29T09:45:42.777Z,47.6
2022-11-29T09:48:42.711Z,45.7
2022-11-29T09:51:44.302Z,45
2022-11-29T09:54:43.038Z,46.2
2022-11-29T09:57:42.728Z,46.4
2022-11-29T10:00:42.760Z,45.4
2022-11-29T10:03:42.740Z,46.5
2022-11-29T10:06:42.736Z,47.6
2022-11-29T10:09:42.736Z,47.2
2022-11-29T10:12:42.737Z,46.5
2022-11-29T10:15:42.740Z,46.7
2022-11-29T10:18:42.766Z,46.9
2022-11-29T10:21:42.742Z,46.7
2022-11-29T10:24:42.843Z,47.1
2022-11-29T10:27:42.747Z,49.1
2022-11-29T10:30:42.795Z,48.2
2022-11-29T10:33:42.750Z,48.6
2022-11-29T10:36:42.776Z,48
2022-11-29T10:39:42.750Z,48
2022-11-29T10:42:42.753Z,48.5
2022-11-29T10:45:42.769Z,46
2022-11-29T10:48:42.763Z,47.5
2022-11-29T10:51:42.762Z,48.8
2022-11-29T10:54:42.897Z,49.8
2022-11-29T10:57:42.774Z,46.7
2022-11-29T11:00:42.768Z,49.4
2022-11-29T11:03:42.769Z,47
2022-11-29T11:06:42.778Z,47.4
2022-11-29T11:09:42.776Z,47.2
2022-11-29T11:12:42.809Z,49.1
2022-11-29T11:15:42.781Z,49.1
2022-11-29T11:18:42.781Z,46.8
2022-11-29T11:21:42.789Z,48.5
2022-11-29T11:24:43.026Z,48.6
2022-11-29T11:27:42.794Z,47.8
2022-11-29T11:30:42.830Z,49.3
2022-11-29T11:33:42.803Z,51.3
2022-11-29T11:36:42.806Z,48.4
2022-11-29T11:39:42.937Z,48.5
2022-11-29T11:42:42.824Z,50.9
2022-11-29T11:45:42.816Z,51.3
2022-11-29T11:48:42.845Z,53.2
2022-11-29T11:51:42.824Z,51.2
2022-11-29T11:54:43.121Z,52.3
2022-11-29T11:57:42.832Z,48.7
2022-11-29T12:03:42.903Z,52.1
2022-11-29T12:06:42.871Z,51.2
2022-11-29T12:09:42.849Z,51.9
2022-11-29T12:12:42.847Z,53.3
2022-11-29T12:15:42.885Z,51.6
2022-11-29T12:18:42.865Z,50
2022-11-29T12:21:42.863Z,49
2022-11-29T12:24:42.931Z,47.4
2022-11-29T12:27:42.872Z,47.6
2022-11-29T12:30:42.883Z,49.4
2022-11-29T12:33:42.889Z,49.1
2022-11-29T12:36:42.893Z,48.7
2022-11-29T12:39:42.896Z,50.6
2022-11-29T12:42:42.925Z,51.1
2022-11-29T12:45:42.903Z,50.6
2022-11-29T12:48:42.920Z,49.5
2022-11-29T12:51:42.911Z,52.3
2022-11-29T12:54:43.180Z,50.3
2022-11-29T12:57:42.930Z,52.7
2022-11-29T13:00:42.958Z,50.9
2022-11-29T13:03:42.939Z,52.7
2022-11-29T13:06:42.934Z,50.5
2022-11-29T13:09:43.086Z,50.8
2022-11-29T13:12:42.950Z,52.5
2022-11-29T13:15:43.007Z,51.6
2022-11-29T13:18:42.989Z,50.9
2022-11-29T13:21:42.978Z,52.8
2022-11-29T13:24:43.296Z,52.6
2022-11-29T13:27:42.995Z,51.8
2022-11-29T13:30:43.031Z,54.3
2022-11-29T13:33:43.012Z,51.2
2022-11-29T13:36:43.052Z,50.9
2022-11-29T13:39:43.023Z,50.8
2022-11-29T13:42:43.032Z,57.2
2022-11-29T13:45:43.045Z,54.7
2022-11-29T13:48:43.049Z,58
2022-11-29T13:51:43.076Z,54.8
2022-11-29T13:54:43.258Z,53.3
2022-11-29T13:58:00.899Z,53.9
2022-11-29T14:00:43.085Z,52.7
2022-11-29T14:03:43.094Z,56.9
2022-11-29T14:06:43.102Z,52.6
2022-11-29T14:09:43.111Z,51.8
2022-11-29T14:12:43.139Z,56.6
2022-11-29T14:15:43.155Z,57.4
2022-11-29T14:18:43.133Z,56.2
2022-11-29T14:21:43.142Z,57.7
2022-11-29T14:24:43.407Z,56.4
2022-11-29T14:27:43.156Z,58.8
2022-11-29T14:30:43.198Z,58.3
2022-11-29T14:33:43.175Z,59.3
2022-11-29T14:36:43.193Z,60.4
2022-11-29T14:39:43.202Z,57.6
2022-11-29T14:42:43.208Z,60.1
2022-11-29T14:45:43.215Z,62
2022-11-29T14:48:43.253Z,64.1
2022-11-29T14:51:43.232Z,68.1
2022-11-29T14:54:43.617Z,68.6
2022-11-29T14:57:43.252Z,66.9
2022-11-29T15:00:43.257Z,67.3
2022-11-29T15:03:43.291Z,69.3
2022-11-29T15:06:46.251Z,73.3
2022-11-29T15:09:43.287Z,75.6
2022-11-29T15:12:43.299Z,81.3
2022-11-29T15:15:43.310Z,82.5
2022-11-29T15:18:43.314Z,81.9
2022-11-29T15:21:43.321Z,81.1
2022-11-29T15:24:43.694Z,86.7
2022-11-29T15:27:43.330Z,84.3
2022-11-29T15:30:43.337Z,82.2
2022-11-29T15:33:43.348Z,84.8
2022-11-29T15:36:43.375Z,82.9
2022-11-29T15:39:43.369Z,82.5
2022-11-29T15:42:43.397Z,85.7
2022-11-29T15:45:43.391Z,85.6
2022-11-29T15:48:43.388Z,88.1
2022-11-29T15:51:43.394Z,81.9
2022-11-29T15:54:43.721Z,93.7
2022-11-29T15:57:43.404Z,92.1
2022-11-29T16:00:43.484Z,91.3
2022-11-29T16:03:43.420Z,95.5
2022-11-29T16:06:43.434Z,85.5
2022-11-29T16:09:43.443Z,83.8
2022-11-29T16:12:43.448Z,82.8
2022-11-29T16:15:43.543Z,77.2
2022-11-29T16:18:43.485Z,82
2022-11-29T16:21:43.470Z,80.9
2022-11-29T16:24:43.772Z,82.1
2022-11-29T16:27:43.487Z,80.7
2022-11-29T16:30:43.494Z,75.2
2022-11-29T16:33:43.501Z,76.4
2022-11-29T16:36:43.534Z,78.2
2022-11-29T16:39:43.517Z,79.9
2022-11-29T16:42:43.524Z,78.9
2022-11-29T16:45:43.593Z,76.3
2022-11-29T16:48:43.548Z,79.1
2022-11-29T16:51:43.558Z,80.3
2022-11-29T16:54:43.880Z,77.4
2022-11-29T16:57:43.574Z,78
2022-11-29T17:00:43.637Z,76.6
2022-11-29T17:03:43.584Z,79.1
2022-11-29T17:06:43.593Z,79.3
2022-11-29T17:09:43.608Z,82.8
2022-11-29T17:12:47.941Z,80.3
2022-11-29T17:15:43.624Z,81.5
2022-11-29T17:18:43.631Z,83
2022-11-29T17:21:43.657Z,81.4
2022-11-29T17:24:47.879Z,80.8
2022-11-29T17:27:43.659Z,79.2
2022-11-29T17:30:43.700Z,73.6
2022-11-29T17:33:43.681Z,75.1
2022-11-29T17:36:43.692Z,76
2022-11-29T17:39:44.046Z,71.3
2022-11-29T17:42:43.712Z,75.3
2022-11-29T17:45:43.766Z,68.4
2022-11-29T17:48:43.830Z,67.9
2022-11-29T17:51:51.514Z,65.8
2022-11-29T17:54:43.748Z,60.8
2022-11-29T17:57:43.758Z,58.5
2022-11-29T18:00:43.831Z,57.2
2022-11-29T18:03:43.782Z,56.3
2022-11-29T18:06:43.828Z,51.9
2022-11-29T18:09:44.149Z,55.1
2022-11-29T18:12:43.807Z,51.3
2022-11-29T18:15:43.817Z,53
2022-11-29T18:18:43.822Z,53.2
2022-11-29T18:21:43.837Z,54.5
2022-11-29T18:24:43.877Z,50.2
2022-11-29T18:27:43.859Z,55.4
2022-11-29T18:30:43.892Z,54.8
2022-11-29T18:33:43.881Z,50.6
2022-11-29T18:36:43.891Z,50.7
2022-11-29T18:39:44.345Z,52.4
2022-11-29T18:42:43.940Z,52.3
2022-11-29T18:45:43.972Z,51.4
2022-11-29T18:48:43.930Z,51.7
2022-11-29T18:51:43.944Z,54.2
2022-11-29T18:54:44.193Z,50.7
2022-11-29T18:57:43.962Z,50
2022-11-29T19:00:44.000Z,50.4
2022-11-29T19:03:43.982Z,53.4
2022-11-29T19:06:43.991Z,50.6
2022-11-29T19:09:44.003Z,57.6
2022-11-29T19:12:44.020Z,58.4
2022-11-29T19:15:44.071Z,57
2022-11-29T19:18:44.068Z,53.4
2022-11-29T19:21:44.061Z,59.9
2022-11-29T19:24:44.392Z,55.2
2022-11-29T19:27:44.086Z,55
2022-11-29T19:30:44.142Z,57.2
2022-11-29T19:33:44.105Z,56.4
2022-11-29T19:36:45.106Z,54.8
2022-11-29T19:39:44.423Z,59.4
2022-11-29T19:42:44.140Z,57.3
2022-11-29T19:45:44.148Z,56
2022-11-29T19:48:44.159Z,53.8
2022-11-29T19:51:44.172Z,56.8
2022-11-29T19:54:44.199Z,56.4
2022-11-29T19:57:44.189Z,55.7
2022-11-29T20:00:44.200Z,55.5
2022-11-29T20:03:44.213Z,58.8
2022-11-29T20:06:44.216Z,59.6
2022-11-29T20:09:44.621Z,61.2
2022-11-29T20:12:44.269Z,64.4
2022-11-29T20:15:44.259Z,61
2022-11-29T20:18:48.909Z,60.7
2022-11-29T20:21:44.273Z,72.9
2022-11-29T20:24:45.685Z,71.5
2022-11-29T20:27:44.291Z,69.9
2022-11-29T20:30:44.361Z,71.4
2022-11-29T20:33:44.312Z,68.1
2022-11-29T20:36:44.335Z,76.4
2022-11-29T20:39:44.689Z,71.7
2022-11-29T20:42:44.341Z,69.3
2022-11-29T20:45:44.351Z,76.4
2022-11-29T20:48:44.380Z,70.6
2022-11-29T20:51:44.362Z,78
2022-11-29T20:54:44.373Z,84.5
2022-11-29T20:57:44.383Z,102
2022-11-29T21:00:44.390Z,88
2022-11-29T21:03:44.420Z,107.1
2022-11-29T21:06:44.428Z,86.1
2022-11-29T21:09:44.408Z,92.2
2022-11-29T21:12:44.417Z,91.8
2022-11-29T21:15:44.466Z,92.4
2022-11-29T21:18:44.437Z,100.3
2022-11-29T21:21:44.442Z,102.4
2022-11-29T21:24:44.840Z,127.3
2022-11-29T21:27:44.461Z,151.2
2022-11-29T21:30:44.466Z,138.9
2022-11-29T21:33:44.469Z,131.6
2022-11-29T21:36:44.477Z,111.3
2022-11-29T21:39:44.488Z,148
2022-11-29T21:42:44.543Z,144.5
2022-11-29T21:45:44.504Z,137.4
2022-11-29T21:48:44.508Z,130.4
2022-11-29T21:51:44.508Z,129.6
2022-11-29T21:54:44.900Z,147.9
2022-11-29T21:57:44.527Z,176.4
2022-11-29T22:00:44.558Z,132.9
2022-11-29T22:03:44.548Z,125
2022-11-29T22:06:44.548Z,172
2022-11-29T22:09:44.558Z,128.1
2022-11-29T22:12:51.751Z,131.9
2022-11-29T22:15:44.608Z,159.6
2022-11-29T22:18:44.600Z,180.2
2022-11-29T22:21:44.580Z,167.3
2022-11-29T22:24:44.786Z,203.7
2022-11-29T22:27:44.587Z,192
2022-11-29T22:30:44.600Z,192.5
2022-11-29T22:33:44.621Z,158.9
2022-11-29T22:36:44.636Z,167.3
2022-11-29T22:39:44.615Z,171.4
2022-11-29T22:42:44.623Z,167.3
2022-11-29T22:45:44.627Z,189.8
2022-11-29T22:48:44.633Z,230.6
2022-11-29T22:51:44.636Z,229.8
2022-11-29T22:54:44.920Z,171
2022-11-29T22:57:44.655Z,186.7
2022-11-29T23:00:44.690Z,160.8
2022-11-29T23:03:44.656Z,202.7
2022-11-29T23:06:44.662Z,145.9
2022-11-29T23:09:44.666Z,214
2022-11-29T23:12:44.697Z,261.9
2022-11-29T23:15:44.671Z,268.2
2022-11-29T23:18:44.675Z,200.1
2022-11-29T23:21:44.690Z,236.9
2022-11-29T23:24:44.926Z,252.1
2022-11-29T23:27:44.693Z,201.4
2022-11-29T23:30:44.718Z,231.4
2022-11-29T23:33:44.693Z,226.2
2022-11-29T23:36:48.342Z,192.4
2022-11-29T23:39:44.697Z,223.4
2022-11-29T23:42:47.148Z,217.5
2022-11-29T23:45:44.720Z,206.9
2022-11-29T23:48:44.727Z,239.4
2022-11-29T23:51:44.700Z,230.9
2022-11-29T23:54:45.059Z,230.7
2022-11-29T23:57:44.710Z,244.8
